createdAt,value
2017-11-20T00:00:14.751Z,61.4
2017-11-20T00:00:29.008Z,61.5
2017-11-20T00:00:41.566Z,61.4
2017-11-20T00:00:58.446Z,61.5
2017-11-20T00:01:10.567Z,61.5
2017-11-20T00:01:23.564Z,61.5
2017-11-20T00:01:36.521Z,61.5
2017-11-20T00:01:53.492Z,61.6
2017-11-20T00:02:05.635Z,62
2017-11-20T00:02:21.156Z,62
2017-11-20T00:02:37.105Z,62
2017-11-20T00:02:49.286Z,61.8
2017-11-20T00:03:06.359Z,62
2017-11-20T00:03:22.370Z,61.6
2017-11-20T00:03:34.503Z,62
2017-11-20T00:03:53.995Z,61.6
2017-11-20T00:04:10.897Z,61.5
2017-11-20T00:04:26.988Z,61.8
2017-11-20T00:04:40.092Z,61.7
2017-11-20T00:04:54.650Z,61.9
2017-11-20T00:05:19.174Z,61.3
2017-11-20T00:05:30.833Z,61.4
2017-11-20T00:05:47.820Z,61.5
2017-11-20T00:06:05.928Z,61.3
2017-11-20T00:06:50.693Z,62
2017-11-20T00:07:02.734Z,61.3
2017-11-20T00:07:15.769Z,61.4
2017-11-20T00:07:28.636Z,61.3
2017-11-20T00:07:40.052Z,61.4
2017-11-20T00:07:53.011Z,61.5
2017-11-20T00:08:05.925Z,61.3
2017-11-20T00:08:22.945Z,62
2017-11-20T00:08:35.090Z,61.5
2017-11-20T00:08:52.017Z,61.2
2017-11-20T00:09:04.224Z,61.5
2017-11-20T00:09:17.102Z,61.9
2017-11-20T00:09:30.115Z,61.6
2017-11-20T00:09:47.162Z,61.8
2017-11-20T00:09:59.172Z,61.8
2017-11-20T00:10:16.110Z,61.5
2017-11-20T00:10:30.747Z,62
2017-11-20T00:10:42.786Z,62
2017-11-20T00:10:55.850Z,62
2017-11-20T00:11:12.705Z,61.6
2017-11-20T00:11:25.931Z,61.6
2017-11-20T00:11:41.870Z,61.6
2017-11-20T00:11:53.975Z,62
2017-11-20T00:12:05.341Z,62
2017-11-20T00:12:18.358Z,61.9
2017-11-20T00:12:35.253Z,61.7
2017-11-20T00:12:51.379Z,61.9
2017-11-20T00:13:07.542Z,61.3
2017-11-20T00:13:23.721Z,61.6
2017-11-20T00:13:35.849Z,61.6
2017-11-20T00:13:48.857Z,61.5
2017-11-20T00:14:05.821Z,61.2
2017-11-20T00:14:17.902Z,61.3
2017-11-20T00:14:30.879Z,61.4
2017-11-20T00:14:43.844Z,61.6
2017-11-20T00:14:56.838Z,61.9
2017-11-20T00:15:09.751Z,61.8
2017-11-20T00:15:26.717Z,61.2
2017-11-20T00:15:43.802Z,61.7
2017-11-20T00:15:56.631Z,61.3
2017-11-20T00:16:10.186Z,61.6
2017-11-20T00:16:22.664Z,61.5
2017-11-20T00:16:35.451Z,61.2
2017-11-20T00:16:50.801Z,62
2017-11-20T00:17:02.951Z,62.2
2017-11-20T00:17:19.906Z,62
2017-11-20T00:17:32.054Z,62
2017-11-20T00:17:44.980Z,61.9
2017-11-20T00:18:01.980Z,61.8
2017-11-20T00:18:42.170Z,62
2017-11-20T00:18:54.291Z,62
2017-11-20T00:19:07.265Z,61.8
2017-11-20T00:19:20.192Z,62.7
2017-11-20T00:19:33.117Z,62.5
2017-11-20T00:19:46.106Z,62.5
2017-11-20T00:19:59.032Z,62.4
2017-11-20T00:20:15.983Z,62.8
2017-11-20T00:20:28.206Z,62.9
2017-11-20T00:20:41.050Z,62.9
2017-11-20T00:20:56.546Z,62.4
2017-11-20T00:21:12.636Z,62.5
2017-11-20T00:21:26.355Z,62.6
2017-11-20T00:21:39.248Z,62.7
2017-11-20T00:21:54.670Z,62.6
2017-11-20T00:22:06.923Z,62.4
2017-11-20T00:22:19.799Z,62.5
2017-11-20T00:22:32.714Z,62.4
2017-11-20T00:22:45.627Z,62.5
2017-11-20T00:23:02.629Z,62.5
2017-11-20T00:23:14.805Z,62.8
2017-11-20T00:23:31.868Z,63
2017-11-20T00:23:43.871Z,62.8
2017-11-20T00:23:56.863Z,62.6
2017-11-20T00:24:09.805Z,62.4
2017-11-20T00:24:22.731Z,62.5
2017-11-20T00:24:35.744Z,62.8
2017-11-20T00:24:48.611Z,62.5
2017-11-20T00:25:04.278Z,62.5
2017-11-20T00:25:20.816Z,62.2
2017-11-20T00:25:33.959Z,62.5
2017-11-20T00:25:46.911Z,62.7
2017-11-20T00:26:03.821Z,62.4
2017-11-20T00:26:15.974Z,62.5
2017-11-20T00:26:32.880Z,62.5
2017-11-20T00:26:45.119Z,62.3
2017-11-20T00:26:58.040Z,62.7
2017-11-20T00:27:14.966Z,63
2017-11-20T00:27:27.181Z,63.3
2017-11-20T00:27:44.061Z,62.9
2017-11-20T00:27:57.236Z,62.7
2017-11-20T00:28:09.168Z,62.7
2017-11-20T00:28:24.507Z,62.7
2017-11-20T00:28:40.754Z,62.6
2017-11-20T00:28:52.863Z,62.9
2017-11-20T00:29:05.841Z,63.2
2017-11-20T00:29:22.754Z,63.1
2017-11-20T00:29:34.872Z,62.8
2017-11-20T00:29:47.856Z,62.9
2017-11-20T00:30:00.773Z,63
2017-11-20T00:30:16.139Z,63.2
2017-11-20T00:30:28.305Z,63
2017-11-20T00:30:41.256Z,63
2017-11-20T00:30:54.234Z,62.8
2017-11-20T00:31:07.186Z,62.9
2017-11-20T00:31:20.116Z,62.8
2017-11-20T00:31:37.074Z,63
2017-11-20T00:31:53.253Z,62.8
2017-11-20T00:32:05.374Z,62.8
2017-11-20T00:32:18.313Z,63.2
2017-11-20T00:32:35.260Z,62.9
2017-11-20T00:32:47.782Z,63
2017-11-20T00:33:27.602Z,62.9
2017-11-20T00:33:40.618Z,63.3
2017-11-20T00:33:57.480Z,62.9
2017-11-20T00:34:09.686Z,63.1
2017-11-20T00:34:22.673Z,62.7
2017-11-20T00:34:35.577Z,63
2017-11-20T00:34:52.528Z,62.3
2017-11-20T00:35:04.654Z,62.3
2017-11-20T00:35:16.058Z,62.3
2017-11-20T00:35:29.032Z,62.5
2017-11-20T00:35:41.927Z,62.6
2017-11-20T00:35:54.888Z,63.1
2017-11-20T00:36:07.852Z,62.8
2017-11-20T00:36:24.843Z,63
2017-11-20T00:36:36.922Z,63.1
2017-11-20T00:36:52.404Z,62.8
2017-11-20T00:37:04.439Z,63.1
2017-11-20T00:37:19.798Z,62.5
2017-11-20T00:37:31.999Z,62.6
2017-11-20T00:37:45.030Z,63
2017-11-20T00:37:57.863Z,62.5
2017-11-20T00:38:09.184Z,62.4
2017-11-20T00:38:24.606Z,62.8
2017-11-20T00:38:40.694Z,63
2017-11-20T00:38:56.904Z,63.2
2017-11-20T00:39:09.036Z,63
2017-11-20T00:39:42.044Z,63.1
2017-11-20T00:40:10.838Z,62.9
2017-11-20T00:40:23.118Z,63.2
2017-11-20T00:40:40.040Z,62.9
2017-11-20T00:40:52.206Z,63.2
2017-11-20T00:41:05.493Z,62.9
2017-11-20T00:41:18.122Z,62.9
2017-11-20T00:41:31.065Z,62.9
2017-11-20T00:41:44.095Z,62.9
2017-11-20T00:42:00.956Z,62.7
2017-11-20T00:42:13.193Z,62.9
2017-11-20T00:42:30.154Z,62.9
2017-11-20T00:42:42.202Z,62.7
2017-11-20T00:42:59.180Z,62.7
2017-11-20T00:43:11.376Z,62.8
2017-11-20T00:43:37.297Z,63.1
2017-11-20T00:43:50.032Z,62.9
2017-11-20T00:44:02.999Z,63.1
2017-11-20T00:44:15.961Z,62.8
2017-11-20T00:44:32.878Z,62.8
2017-11-20T00:44:45.009Z,62.9
2017-11-20T00:44:58.075Z,63
2017-11-20T00:45:11.003Z,63
2017-11-20T00:45:23.933Z,63.2
2017-11-20T00:45:36.869Z,62.8
2017-11-20T00:45:49.806Z,62.8
2017-11-20T00:46:01.180Z,63.2
2017-11-20T00:46:18.249Z,62.8
2017-11-20T00:46:30.276Z,63.2
2017-11-20T00:46:43.321Z,62.7
2017-11-20T00:47:00.256Z,63
2017-11-20T00:47:12.324Z,63
2017-11-20T00:47:25.294Z,63.1
2017-11-20T00:47:38.248Z,63.3
2017-11-20T00:47:51.247Z,63.2
2017-11-20T00:48:04.123Z,63.2
2017-11-20T00:48:21.113Z,63.1
2017-11-20T00:48:37.258Z,62.7
2017-11-20T00:48:49.430Z,63.1
2017-11-20T00:49:06.365Z,63.3
2017-11-20T00:49:22.575Z,63
2017-11-20T00:49:34.728Z,63.2
2017-11-20T00:49:54.112Z,63.3
2017-11-20T00:50:08.316Z,63.3
2017-11-20T00:50:23.935Z,63.2
2017-11-20T00:50:36.067Z,63.4
2017-11-20T00:50:49.077Z,63.4
2017-11-20T00:51:06.039Z,63.4
2017-11-20T00:51:22.177Z,63.1
2017-11-20T00:51:34.332Z,63.5
2017-11-20T00:51:47.522Z,63.5
2017-11-20T00:52:00.161Z,63.8
2017-11-20T00:52:13.204Z,63.6
2017-11-20T00:52:30.131Z,63.3
2017-11-20T00:52:42.257Z,63.4
2017-11-20T00:52:59.191Z,63.3
2017-11-20T00:53:15.360Z,63.4
2017-11-20T00:53:30.055Z,63.7
2017-11-20T00:53:43.091Z,63.1
2017-11-20T00:53:59.016Z,62.9
2017-11-20T00:54:28.191Z,63.4
2017-11-20T00:54:45.138Z,63.4
2017-11-20T00:54:58.153Z,63
2017-11-20T00:55:14.834Z,63.7
2017-11-20T00:55:31.066Z,63.5
2017-11-20T00:55:43.194Z,63.4
2017-11-20T00:55:56.070Z,63.3
2017-11-20T00:56:13.076Z,63.8
2017-11-20T00:56:25.240Z,63.7
2017-11-20T00:56:38.140Z,63.8
2017-11-20T00:56:51.088Z,63.5
2017-11-20T00:57:07.993Z,63.5
2017-11-20T00:57:20.193Z,63.3
2017-11-20T00:57:33.190Z,63.5
2017-11-20T00:57:46.120Z,63.6
2017-11-20T00:57:59.056Z,63.7
2017-11-20T00:58:12.031Z,63.7
2017-11-20T00:58:24.984Z,63.7
2017-11-20T00:58:37.925Z,63.6
2017-11-20T00:58:51.016Z,63.1
2017-11-20T00:59:03.824Z,63.3
2017-11-20T00:59:16.800Z,63
2017-11-20T00:59:29.753Z,63.3
2017-11-20T00:59:46.627Z,63.3
2017-11-20T00:59:58.832Z,63.2
2017-11-20T01:00:15.785Z,63.3
2017-11-20T01:00:27.965Z,63.3
2017-11-20T01:00:40.901Z,63.1
2017-11-20T01:00:53.848Z,63.3
2017-11-20T01:01:06.861Z,63.8
2017-11-20T01:01:23.801Z,63.6
2017-11-20T01:01:39.909Z,63.5
2017-11-20T01:01:52.074Z,63.7
2017-11-20T01:02:04.994Z,63.3
2017-11-20T01:02:22.016Z,64
2017-11-20T01:02:38.093Z,64
2017-11-20T01:02:50.259Z,63.7
2017-11-20T01:03:03.250Z,63.7
2017-11-20T01:03:20.201Z,63.7
2017-11-20T01:03:32.332Z,64
2017-11-20T01:03:47.727Z,63.9
2017-11-20T01:04:14.432Z,63.9
2017-11-20T01:04:27.197Z,63.8
2017-11-20T01:04:44.184Z,63.7
2017-11-20T01:04:56.283Z,63.7
2017-11-20T01:05:09.248Z,63.7
2017-11-20T01:05:24.551Z,63.4
2017-11-20T01:05:36.767Z,63.3
2017-11-20T01:05:49.662Z,63
2017-11-20T01:06:06.754Z,63.1
2017-11-20T01:06:22.848Z,63.1
2017-11-20T01:06:34.983Z,62.7
2017-11-20T01:06:47.990Z,62.6
2017-11-20T01:07:04.877Z,63.2
2017-11-20T01:07:17.362Z,63.1
2017-11-20T01:07:34.007Z,63.3
2017-11-20T01:07:46.087Z,63.1
2017-11-20T01:07:59.056Z,63.6
2017-11-20T01:08:18.758Z,63.4
2017-11-20T01:08:35.391Z,63.3
2017-11-20T01:08:51.560Z,63.3
2017-11-20T01:09:07.707Z,63.1
2017-11-20T01:09:23.852Z,63.4
2017-11-20T01:10:19.156Z,63
2017-11-20T01:10:30.699Z,63.4
2017-11-20T01:10:43.675Z,63.1
2017-11-20T01:10:56.630Z,63.7
2017-11-20T01:11:15.324Z,63.3
2017-11-20T01:11:31.424Z,63.3
2017-11-20T01:11:43.503Z,63.6
2017-11-20T01:12:34.975Z,63.4
2017-11-20T01:12:47.965Z,63.4
2017-11-20T01:13:00.869Z,63.3
2017-11-20T01:13:13.953Z,63
2017-11-20T01:13:30.768Z,63.6
2017-11-20T01:13:42.959Z,63.3
2017-11-20T01:13:55.906Z,63.6
2017-11-20T01:14:09.835Z,63.5
2017-11-20T01:14:21.742Z,63.2
2017-11-20T01:14:34.921Z,63.4
2017-11-20T01:14:49.729Z,63.6
2017-11-20T01:15:02.350Z,63.6
2017-11-20T01:15:15.230Z,63.2
2017-11-20T01:15:28.152Z,63.2
2017-11-20T01:15:45.130Z,63.3
2017-11-20T01:16:01.283Z,63.2
2017-11-20T01:16:13.433Z,63.3
2017-11-20T01:16:26.384Z,63.3
2017-11-20T01:16:43.344Z,63.3
2017-11-20T01:16:59.485Z,63.2
2017-11-20T01:17:11.699Z,63.2
2017-11-20T01:17:28.627Z,63.2
2017-11-20T01:17:40.784Z,63.4
2017-11-20T01:18:31.171Z,63.4
2017-11-20T01:18:47.429Z,63.3
2017-11-20T01:19:03.601Z,63.3
2017-11-20T01:19:19.754Z,63.8
2017-11-20T01:19:31.892Z,63.6
2017-11-20T01:19:44.868Z,63.3
2017-11-20T01:19:57.806Z,63.3
2017-11-20T01:20:10.820Z,63.3
2017-11-20T01:20:38.273Z,63.3
2017-11-20T01:20:56.090Z,63.5
2017-11-20T01:21:12.827Z,63.8
2017-11-20T01:21:25.048Z,63.5
2017-11-20T01:21:37.982Z,64
2017-11-20T01:21:55.059Z,63.7
2017-11-20T01:22:07.092Z,63.7
2017-11-20T01:22:19.948Z,63.8
2017-11-20T01:23:00.321Z,63.8
2017-11-20T01:23:20.269Z,63.7
2017-11-20T01:23:38.613Z,63.8
2017-11-20T01:23:50.387Z,64
2017-11-20T01:24:07.324Z,63.5
2017-11-20T01:24:19.517Z,63.6
2017-11-20T01:24:32.514Z,63.4
2017-11-20T01:24:45.373Z,63.5
2017-11-20T01:24:57.799Z,63.6
2017-11-20T01:25:09.748Z,63.7
2017-11-20T01:25:26.725Z,63.6
2017-11-20T01:25:42.815Z,63.2
2017-11-20T01:25:58.992Z,63.5
2017-11-20T01:26:17.707Z,63.3
2017-11-20T01:26:31.053Z,63.3
2017-11-20T01:26:47.478Z,63.4
2017-11-20T01:26:59.573Z,63.3
2017-11-20T01:27:12.496Z,63.2
2017-11-20T01:27:25.498Z,63.5
2017-11-20T01:27:42.436Z,63.5
2017-11-20T01:27:54.676Z,63.3
2017-11-20T01:28:19.528Z,63.7
2017-11-20T01:28:35.708Z,63.4
2017-11-20T01:28:51.875Z,63.6
2017-11-20T01:29:05.263Z,63.2
2017-11-20T01:29:21.000Z,63.6
2017-11-20T01:29:37.153Z,63.6
2017-11-20T01:29:49.261Z,64
2017-11-20T01:30:02.286Z,63.6
2017-11-20T01:30:19.180Z,63.8
2017-11-20T01:30:31.350Z,63.6
2017-11-20T01:30:44.325Z,63.6
2017-11-20T01:30:59.296Z,63.3
2017-11-20T01:31:15.806Z,63.4
2017-11-20T01:31:57.286Z,63.4
2017-11-20T01:32:13.849Z,63
2017-11-20T01:32:38.479Z,63
2017-11-20T01:32:54.125Z,63.4
2017-11-20T01:33:08.325Z,63.1
2017-11-20T01:33:20.835Z,63.6
2017-11-20T01:33:36.229Z,63.6
2017-11-20T01:33:48.391Z,63.4
2017-11-20T01:34:01.311Z,63.4
2017-11-20T01:34:14.345Z,63.3
2017-11-20T01:34:31.298Z,63.3
2017-11-20T01:34:43.349Z,63.3
2017-11-20T01:34:54.851Z,63.4
2017-11-20T01:35:07.665Z,63.3
2017-11-20T01:35:24.669Z,63.3
2017-11-20T01:35:36.840Z,63.1
2017-11-20T01:35:51.858Z,63.3
2017-11-20T01:36:04.352Z,63.4
2017-11-20T01:36:17.325Z,63.6
2017-11-20T01:36:45.695Z,63.9
2017-11-20T01:36:57.574Z,63.8
2017-11-20T01:37:16.527Z,63.8
2017-11-20T01:37:28.428Z,63.8
2017-11-20T01:37:58.257Z,64.3
2017-11-20T01:38:21.180Z,63.8
2017-11-20T01:38:32.702Z,63.9
2017-11-20T01:38:45.699Z,64.5
2017-11-20T01:39:02.654Z,64
2017-11-20T01:39:14.813Z,63.4
2017-11-20T01:39:31.734Z,63.9
2017-11-20T01:39:43.902Z,64
2017-11-20T01:39:55.251Z,63.7
2017-11-20T01:40:08.223Z,64
2017-11-20T01:40:21.112Z,63.7
2017-11-20T01:40:34.109Z,64
2017-11-20T01:40:51.027Z,63.9
2017-11-20T01:41:07.227Z,63.4
2017-11-20T01:41:19.442Z,63.6
2017-11-20T01:41:36.410Z,63.6
2017-11-20T01:41:48.465Z,63.8
2017-11-20T01:42:01.453Z,63.7
2017-11-20T01:42:18.365Z,63.3
2017-11-20T01:42:30.529Z,63.7
2017-11-20T01:42:43.520Z,63.3
2017-11-20T01:42:56.474Z,63.5
2017-11-20T01:43:13.383Z,63.5
2017-11-20T01:43:25.545Z,63.5
2017-11-20T01:43:36.966Z,63.7
2017-11-20T01:43:49.814Z,63.6
2017-11-20T01:44:02.816Z,63.1
2017-11-20T01:44:19.764Z,63.1
2017-11-20T01:44:35.910Z,62.8
2017-11-20T01:44:52.045Z,63.3
2017-11-20T01:45:08.198Z,63.3
2017-11-20T01:45:24.355Z,63.3
2017-11-20T01:45:36.518Z,63.1
2017-11-20T01:45:49.494Z,63.3
2017-11-20T01:46:06.440Z,63.2
2017-11-20T01:46:18.547Z,62.9
2017-11-20T01:46:31.528Z,63.1
2017-11-20T01:46:44.495Z,63.1
2017-11-20T01:46:57.573Z,63.3
2017-11-20T01:47:10.365Z,63.2
2017-11-20T01:47:23.343Z,63.3
2017-11-20T01:47:36.261Z,63.3
2017-11-20T01:47:51.661Z,63.6
2017-11-20T01:48:03.798Z,64
2017-11-20T01:48:16.746Z,63.9
2017-11-20T01:48:28.111Z,63.2
2017-11-20T01:48:45.112Z,63.3
2017-11-20T01:49:09.226Z,63.3
2017-11-20T01:49:21.357Z,63.1
2017-11-20T01:49:32.725Z,63.3
2017-11-20T01:50:02.649Z,63.3
2017-11-20T01:50:21.106Z,63.4
2017-11-20T01:50:38.013Z,63.2
2017-11-20T01:50:54.200Z,63.3
2017-11-20T01:51:36.019Z,62.8
2017-11-20T01:51:49.201Z,63
2017-11-20T01:52:01.183Z,62.7
2017-11-20T01:52:20.662Z,63.2
2017-11-20T01:52:33.514Z,62.9
2017-11-20T01:52:50.464Z,62.7
2017-11-20T01:53:02.586Z,62.6
2017-11-20T01:53:17.584Z,62.5
2017-11-20T01:53:30.094Z,63
2017-11-20T01:53:43.018Z,62.7
2017-11-20T01:53:55.981Z,62.9
2017-11-20T01:54:12.920Z,63
2017-11-20T01:54:44.629Z,63
2017-11-20T01:55:01.256Z,63
2017-11-20T01:55:28.904Z,63.4
2017-11-20T01:55:44.760Z,63.3
2017-11-20T01:55:56.905Z,63.5
2017-11-20T01:56:09.838Z,63.2
2017-11-20T01:56:22.841Z,62.7
2017-11-20T01:56:36.003Z,63.1
2017-11-20T01:56:52.739Z,63
2017-11-20T01:57:04.876Z,63.1
2017-11-20T01:57:17.916Z,63.3
2017-11-20T01:57:33.252Z,63.3
2017-11-20T01:57:45.835Z,63.3
2017-11-20T01:58:02.222Z,63.5
2017-11-20T01:58:14.551Z,63.1
2017-11-20T01:58:27.398Z,63.1
2017-11-20T01:58:40.324Z,63
2017-11-20T01:58:53.268Z,63.3
2017-11-20T01:59:10.226Z,63.1
2017-11-20T01:59:26.401Z,62.9
2017-11-20T01:59:50.566Z,62.5
2017-11-20T02:00:06.755Z,62.6
2017-11-20T02:00:22.955Z,62.9
2017-11-20T02:00:35.004Z,62.5
2017-11-20T02:00:51.948Z,62.5
2017-11-20T02:01:08.094Z,62.7
2017-11-20T02:01:20.355Z,63.1
2017-11-20T02:01:37.208Z,62.8
2017-11-20T02:01:49.328Z,63.3
2017-11-20T02:02:00.694Z,62.8
2017-11-20T02:02:13.692Z,62.9
2017-11-20T02:02:26.618Z,63
2017-11-20T02:02:37.943Z,62.7
2017-11-20T02:02:50.890Z,63.3
2017-11-20T02:03:07.831Z,63.1
2017-11-20T02:03:20.055Z,63.2
2017-11-20T02:03:36.983Z,63.3
2017-11-20T02:03:49.108Z,62.6
2017-11-20T02:04:00.472Z,62.9
2017-11-20T02:04:11.809Z,63.1
2017-11-20T02:04:27.156Z,62.9
2017-11-20T02:04:43.293Z,62.7
2017-11-20T02:04:55.462Z,63
2017-11-20T02:05:06.820Z,63.1
2017-11-20T02:05:19.837Z,63.2
2017-11-20T02:05:32.716Z,63.1
2017-11-20T02:05:44.121Z,63.4
2017-11-20T02:06:01.026Z,63.6
2017-11-20T02:06:17.211Z,63.1
2017-11-20T02:06:29.347Z,63.1
2017-11-20T02:06:42.313Z,63.2
2017-11-20T02:06:55.239Z,63.5
2017-11-20T02:07:08.231Z,63.5
2017-11-20T02:07:21.172Z,63.3
2017-11-20T02:07:38.123Z,63.4
2017-11-20T02:07:54.249Z,63.4
2017-11-20T02:08:06.439Z,63.3
2017-11-20T02:08:23.329Z,63.2
2017-11-20T02:08:39.596Z,63.3
2017-11-20T02:08:52.778Z,63
2017-11-20T02:09:08.670Z,63.2
2017-11-20T02:09:20.781Z,62.9
2017-11-20T02:09:32.215Z,63
2017-11-20T02:09:49.072Z,63
2017-11-20T02:10:01.286Z,63.1
2017-11-20T02:10:14.205Z,63.1
2017-11-20T02:10:27.129Z,62.5
2017-11-20T02:10:44.082Z,62.9
2017-11-20T02:11:00.262Z,62.6
2017-11-20T02:11:12.457Z,62.6
2017-11-20T02:11:29.327Z,62.4
2017-11-20T02:11:41.537Z,63.3
2017-11-20T02:11:58.504Z,62.3
2017-11-20T02:12:10.585Z,62.8
2017-11-20T02:12:25.949Z,63
2017-11-20T02:12:38.139Z,63
2017-11-20T02:12:55.100Z,63
2017-11-20T02:13:19.532Z,62.9
2017-11-20T02:13:31.723Z,63
2017-11-20T02:13:48.679Z,62.8
2017-11-20T02:14:00.535Z,62.9
2017-11-20T02:14:17.484Z,63.2
2017-11-20T02:14:29.568Z,63
2017-11-20T02:14:44.703Z,63
2017-11-20T02:14:57.190Z,63
2017-11-20T02:15:10.074Z,63
2017-11-20T02:15:25.042Z,62.7
2017-11-20T02:15:37.873Z,62.9
2017-11-20T02:16:06.033Z,63.1
2017-11-20T02:16:21.861Z,63.1
2017-11-20T02:16:38.038Z,63
2017-11-20T02:16:54.140Z,63
2017-11-20T02:17:10.359Z,63
2017-11-20T02:17:38.976Z,63
2017-11-20T02:17:51.531Z,63
2017-11-20T02:18:04.403Z,62.7
2017-11-20T02:18:17.368Z,62.7
2017-11-20T02:18:30.270Z,62.7
2017-11-20T02:18:47.285Z,62.7
2017-11-20T02:18:59.447Z,62.6
2017-11-20T02:19:16.420Z,62.9
2017-11-20T02:19:28.634Z,62.9
2017-11-20T02:19:41.479Z,62.8
2017-11-20T02:19:58.427Z,62.9
2017-11-20T02:20:10.589Z,62.8
2017-11-20T02:20:23.546Z,62.6
2017-11-20T02:20:36.491Z,63.3
2017-11-20T02:20:49.451Z,63.1
2017-11-20T02:21:02.486Z,63.1
2017-11-20T02:21:15.432Z,63.1
2017-11-20T02:21:32.303Z,63
2017-11-20T02:21:44.462Z,63.4
2017-11-20T02:21:57.389Z,62.8
2017-11-20T02:22:10.396Z,62.7
2017-11-20T02:22:23.287Z,63.3
2017-11-20T02:22:40.295Z,63
2017-11-20T02:22:52.441Z,63
2017-11-20T02:23:05.359Z,63.3
2017-11-20T02:23:22.279Z,63.2
2017-11-20T02:23:34.445Z,62.7
2017-11-20T02:23:45.834Z,63.2
2017-11-20T02:24:02.807Z,63.1
2017-11-20T02:24:18.967Z,63
2017-11-20T02:24:31.092Z,63.2
2017-11-20T02:24:47.056Z,62.9
2017-11-20T02:25:11.214Z,63.5
2017-11-20T02:25:26.731Z,63
2017-11-20T02:25:44.499Z,63.1
2017-11-20T02:25:56.659Z,63
2017-11-20T02:26:09.631Z,62.9
2017-11-20T02:26:22.558Z,62.7
2017-11-20T02:26:35.496Z,63
2017-11-20T02:26:52.435Z,62.9
2017-11-20T02:27:04.618Z,62.9
2017-11-20T02:27:24.051Z,63
2017-11-20T02:27:36.885Z,63.1
2017-11-20T02:27:48.286Z,63.2
2017-11-20T02:28:05.220Z,63
2017-11-20T02:28:19.332Z,62.9
2017-11-20T02:28:35.917Z,62.6
2017-11-20T02:28:48.184Z,62.7
2017-11-20T02:29:01.000Z,63.1
2017-11-20T02:29:12.343Z,63.1
2017-11-20T02:29:27.762Z,62.4
2017-11-20T02:29:39.910Z,62.3
2017-11-20T02:29:52.858Z,62.4
2017-11-20T02:30:09.809Z,62.6
2017-11-20T02:30:22.018Z,62.5
2017-11-20T02:30:34.961Z,62.5
2017-11-20T02:30:47.868Z,62.6
2017-11-20T02:31:10.725Z,63.1
2017-11-20T02:31:23.396Z,63.1
2017-11-20T02:31:42.751Z,63.1
2017-11-20T02:31:59.688Z,63.1
2017-11-20T02:32:26.816Z,62.3
2017-11-20T02:32:43.166Z,62.5
2017-11-20T02:32:59.359Z,62.6
2017-11-20T02:33:11.471Z,62.6
2017-11-20T02:34:01.170Z,62.4
2017-11-20T02:34:29.727Z,62.6
2017-11-20T02:34:41.704Z,62.6
2017-11-20T02:34:54.666Z,63
2017-11-20T02:35:11.582Z,63.2
2017-11-20T02:35:27.769Z,62.9
2017-11-20T02:35:43.921Z,63
2017-11-20T02:35:56.057Z,63.2
2017-11-20T02:36:13.004Z,63.2
2017-11-20T02:36:29.130Z,63.2
2017-11-20T02:36:45.363Z,62.8
2017-11-20T02:36:57.459Z,62.4
2017-11-20T02:37:11.728Z,62.5
2017-11-20T02:37:27.348Z,62.3
2017-11-20T02:37:43.553Z,62.4
2017-11-20T02:37:59.710Z,62.4
2017-11-20T02:38:11.822Z,62.6
2017-11-20T02:38:27.237Z,62.7
2017-11-20T02:38:43.331Z,62.4
2017-11-20T02:38:55.480Z,62
2017-11-20T02:39:08.512Z,62.5
2017-11-20T02:39:25.384Z,62.5
2017-11-20T02:39:37.571Z,62.8
2017-11-20T02:39:50.600Z,62.3
2017-11-20T02:40:03.484Z,62.6
2017-11-20T02:40:20.393Z,62.4
2017-11-20T02:40:32.585Z,62.5
2017-11-20T02:40:45.543Z,62.5
2017-11-20T02:40:58.460Z,62.5
2017-11-20T02:41:09.872Z,62.5
2017-11-20T02:41:22.820Z,62.4
2017-11-20T02:41:35.748Z,62.6
2017-11-20T02:42:08.724Z,62.5
2017-11-20T02:42:20.834Z,62.5
2017-11-20T02:42:37.848Z,62.9
2017-11-20T02:42:49.965Z,62.9
2017-11-20T02:43:06.898Z,63
2017-11-20T02:43:19.093Z,63.1
2017-11-20T02:43:36.135Z,63
2017-11-20T02:43:48.306Z,62.6
2017-11-20T02:44:05.117Z,62.5
2017-11-20T02:44:27.195Z,62.5
2017-11-20T02:44:39.856Z,62.4
2017-11-20T02:44:59.319Z,62.6
2017-11-20T02:45:16.106Z,62.8
2017-11-20T02:45:33.316Z,61.9
2017-11-20T02:45:50.077Z,62.4
2017-11-20T02:46:06.157Z,62.4
2017-11-20T02:46:22.367Z,62.4
2017-11-20T02:46:36.567Z,62.5
2017-11-20T02:47:02.399Z,62.7
2017-11-20T02:47:14.819Z,63
2017-11-20T02:47:27.745Z,63.2
2017-11-20T02:47:40.710Z,62.8
2017-11-20T02:47:53.753Z,62.6
2017-11-20T02:48:10.605Z,63.1
2017-11-20T02:48:35.281Z,62.5
2017-11-20T02:48:46.954Z,62.3
2017-11-20T02:49:03.871Z,62.4
2017-11-20T02:49:20.004Z,62.5
2017-11-20T02:49:32.187Z,62.2
2017-11-20T02:49:45.136Z,63.1
2017-11-20T02:50:02.152Z,63
2017-11-20T02:50:14.227Z,63.1
2017-11-20T02:50:27.224Z,63.2
2017-11-20T02:50:41.494Z,63.1
2017-11-20T02:50:53.119Z,63.1
2017-11-20T02:51:06.117Z,63.3
2017-11-20T02:51:19.004Z,63.6
2017-11-20T02:51:35.969Z,63.8
2017-11-20T02:51:49.176Z,63.9
2017-11-20T02:52:01.089Z,63.7
2017-11-20T02:52:13.997Z,63.8
2017-11-20T02:52:26.979Z,63.4
2017-11-20T02:52:43.881Z,63
2017-11-20T02:52:56.085Z,63.3
2017-11-20T02:53:09.049Z,63.3
2017-11-20T02:53:22.016Z,63.4
2017-11-20T02:53:35.090Z,63.3
2017-11-20T02:53:53.253Z,62.8
2017-11-20T02:54:05.785Z,63.3
2017-11-20T02:54:18.597Z,63.3
2017-11-20T02:54:31.547Z,63
2017-11-20T02:54:42.873Z,63.1
2017-11-20T02:54:55.857Z,63.2
2017-11-20T02:55:07.203Z,63.4
2017-11-20T02:55:20.217Z,63
2017-11-20T02:55:37.115Z,62.9
2017-11-20T02:55:53.524Z,63.5
2017-11-20T02:56:05.453Z,63.3
2017-11-20T02:56:22.346Z,63.1
2017-11-20T02:56:34.590Z,63.3
2017-11-20T02:56:51.475Z,63.3
2017-11-20T02:57:07.668Z,62.7
2017-11-20T02:57:19.783Z,63.3
2017-11-20T02:57:32.750Z,63
2017-11-20T02:57:45.678Z,63.1
2017-11-20T02:58:02.660Z,63.3
2017-11-20T02:58:14.822Z,63
2017-11-20T02:58:27.802Z,62.7
2017-11-20T02:58:50.602Z,63.1
2017-11-20T02:59:03.279Z,62.8
2017-11-20T02:59:16.158Z,63.2
2017-11-20T02:59:31.569Z,63
2017-11-20T02:59:43.722Z,62.7
2017-11-20T03:00:00.664Z,63.3
2017-11-20T03:00:12.827Z,63.1
2017-11-20T03:00:29.717Z,63.3
2017-11-20T03:00:45.907Z,63.1
2017-11-20T03:00:58.039Z,62.9
2017-11-20T03:01:15.095Z,63.1
2017-11-20T03:01:31.182Z,62.7
2017-11-20T03:01:43.356Z,63.1
2017-11-20T03:01:56.358Z,62.9
2017-11-20T03:02:09.284Z,63.2
2017-11-20T03:02:22.261Z,62.7
2017-11-20T03:02:35.251Z,63
2017-11-20T03:02:48.103Z,63.1
2017-11-20T03:03:05.126Z,62.8
2017-11-20T03:03:21.224Z,62.5
2017-11-20T03:03:37.360Z,62.8
2017-11-20T03:03:50.566Z,62.9
2017-11-20T03:04:02.638Z,63.3
2017-11-20T03:04:15.468Z,62.9
2017-11-20T03:04:32.427Z,63
2017-11-20T03:04:48.509Z,62.8
2017-11-20T03:05:00.672Z,63.1
2017-11-20T03:05:17.734Z,63.3
2017-11-20T03:05:29.813Z,63.5
2017-11-20T03:05:42.787Z,63.3
2017-11-20T03:05:57.025Z,62.9
2017-11-20T03:06:12.654Z,63.1
2017-11-20T03:06:24.781Z,63.4
2017-11-20T03:06:40.111Z,63
2017-11-20T03:06:52.347Z,63.2
2017-11-20T03:07:05.316Z,63.1
2017-11-20T03:07:24.716Z,63.1
2017-11-20T03:07:39.629Z,62.7
2017-11-20T03:07:55.290Z,62.7
2017-11-20T03:08:13.352Z,62.7
2017-11-20T03:08:28.103Z,62.7
2017-11-20T03:08:40.618Z,62.9
2017-11-20T03:08:53.537Z,62.9
2017-11-20T03:09:06.529Z,63
2017-11-20T03:09:19.415Z,62.6
2017-11-20T03:09:32.432Z,62.3
2017-11-20T03:09:49.456Z,63.2
2017-11-20T03:10:05.521Z,63.1
2017-11-20T03:10:17.637Z,63.1
2017-11-20T03:10:29.012Z,62.9
2017-11-20T03:10:41.978Z,63.1
2017-11-20T03:10:58.886Z,62.8
2017-11-20T03:11:11.058Z,62.9
2017-11-20T03:11:24.192Z,62.7
2017-11-20T03:11:40.973Z,62.5
2017-11-20T03:11:57.135Z,63
2017-11-20T03:12:09.274Z,62.9
2017-11-20T03:12:22.245Z,62.5
2017-11-20T03:12:39.366Z,62.5
2017-11-20T03:12:51.404Z,62.6
2017-11-20T03:13:10.841Z,63.1
2017-11-20T03:13:27.714Z,63.1
2017-11-20T03:13:39.823Z,63.1
2017-11-20T03:13:52.758Z,63
2017-11-20T03:14:05.740Z,62.9
2017-11-20T03:14:19.017Z,62.9
2017-11-20T03:14:31.612Z,63
2017-11-20T03:14:44.563Z,62.9
2017-11-20T03:15:01.559Z,63.2
2017-11-20T03:15:13.670Z,63.1
2017-11-20T03:15:26.631Z,63
2017-11-20T03:15:39.616Z,63.1
2017-11-20T03:15:52.563Z,63
2017-11-20T03:16:05.512Z,63.1
2017-11-20T03:16:18.463Z,62.8
2017-11-20T03:16:37.717Z,62.7
2017-11-20T03:16:50.774Z,63.1
2017-11-20T03:17:03.755Z,62.9
2017-11-20T03:17:16.669Z,63.1
2017-11-20T03:17:29.608Z,62.5
2017-11-20T03:17:42.605Z,62.8
2017-11-20T03:17:59.536Z,63
2017-11-20T03:18:11.748Z,63.1
2017-11-20T03:18:28.608Z,63.1
2017-11-20T03:18:40.782Z,63.2
2017-11-20T03:18:53.768Z,63.3
2017-11-20T03:19:10.729Z,63.4
2017-11-20T03:19:22.873Z,63.3
2017-11-20T03:19:39.815Z,63.1
2017-11-20T03:20:06.973Z,63
2017-11-20T03:20:23.317Z,63.3
2017-11-20T03:20:42.624Z,63.3
2017-11-20T03:20:58.773Z,63.2
2017-11-20T03:21:17.257Z,63.3
2017-11-20T03:21:32.732Z,63.1